sensor_id;sensor_type;location;lat;lon;timestamp;temperature;humidity
67820;DHT22;54618;52.018;5.576;2023-03-04T00:01:41;17.20;45.00
67820;DHT22;54618;52.018;5.576;2023-03-04T00:04:06;17.20;45.10
67820;DHT22;54618;52.018;5.576;2023-03-04T00:06:32;17.20;45.10
67820;DHT22;54618;52.018;5.576;2023-03-04T00:08:58;17.10;45.70
67820;DHT22;54618;52.018;5.576;2023-03-04T00:11:23;17.10;45.00
67820;DHT22;54618;52.018;5.576;2023-03-04T00:13:49;17.10;45.10
67820;DHT22;54618;52.018;5.576;2023-03-04T00:16:14;17.10;45.10
67820;DHT22;54618;52.018;5.576;2023-03-04T00:18:40;17.10;45.10
67820;DHT22;54618;52.018;5.576;2023-03-04T00:21:05;17.10;45.10
67820;DHT22;54618;52.018;5.576;2023-03-04T00:23:31;17.10;45.10
67820;DHT22;54618;52.018;5.576;2023-03-04T00:25:57;17.10;45.70
67820;DHT22;54618;52.018;5.576;2023-03-04T00:28:22;17.10;45.10
67820;DHT22;54618;52.018;5.576;2023-03-04T00:30:48;17.10;45.20
67820;DHT22;54618;52.018;5.576;2023-03-04T00:33:14;17.00;45.10
67820;DHT22;54618;52.018;5.576;2023-03-04T00:35:39;17.00;45.10
67820;DHT22;54618;52.018;5.576;2023-03-04T00:38:05;17.00;45.10
67820;DHT22;54618;52.018;5.576;2023-03-04T00:40:31;17.00;45.10
67820;DHT22;54618;52.018;5.576;2023-03-04T00:42:56;17.00;45.10
67820;DHT22;54618;52.018;5.576;2023-03-04T00:45:22;17.00;45.20
67820;DHT22;54618;52.018;5.576;2023-03-04T00:47:47;17.00;45.20
67820;DHT22;54618;52.018;5.576;2023-03-04T00:50:13;17.00;45.20
67820;DHT22;54618;52.018;5.576;2023-03-04T00:52:38;16.90;45.20
67820;DHT22;54618;52.018;5.576;2023-03-04T00:55:04;16.90;45.20
67820;DHT22;54618;52.018;5.576;2023-03-04T00:57:30;16.90;45.20
67820;DHT22;54618;52.018;5.576;2023-03-04T00:59:56;16.90;45.20
67820;DHT22;54618;52.018;5.576;2023-03-04T01:02:21;16.90;45.20
67820;DHT22;54618;52.018;5.576;2023-03-04T01:04:47;16.90;45.20
67820;DHT22;54618;52.018;5.576;2023-03-04T01:07:12;16.90;45.20
67820;DHT22;54618;52.018;5.576;2023-03-04T01:09:38;16.90;45.20
67820;DHT22;54618;52.018;5.576;2023-03-04T01:12:03;16.90;45.30
67820;DHT22;54618;52.018;5.576;2023-03-04T01:14:29;16.90;45.30
67820;DHT22;54618;52.018;5.576;2023-03-04T01:16:55;16.90;45.30
67820;DHT22;54618;52.018;5.576;2023-03-04T01:19:20;16.90;45.30
67820;DHT22;54618;52.018;5.576;2023-03-04T01:21:46;16.90;46.00
67820;DHT22;54618;52.018;5.576;2023-03-04T01:24:11;16.90;45.30
67820;DHT22;54618;52.018;5.576;2023-03-04T01:26:37;16.80;45.30
67820;DHT22;54618;52.018;5.576;2023-03-04T01:29:03;16.90;46.00
67820;DHT22;54618;52.018;5.576;2023-03-04T01:31:28;16.90;45.60
67820;DHT22;54618;52.018;5.576;2023-03-04T01:33:54;16.80;45.40
67820;DHT22;54618;52.018;5.576;2023-03-04T01:36:19;16.80;45.40
67820;DHT22;54618;52.018;5.576;2023-03-04T01:38:45;16.80;46.10
67820;DHT22;54618;52.018;5.576;2023-03-04T01:41:11;16.80;45.40
67820;DHT22;54618;52.018;5.576;2023-03-04T01:43:38;16.80;45.40
67820;DHT22;54618;52.018;5.576;2023-03-04T01:46:04;16.80;45.40
67820;DHT22;54618;52.018;5.576;2023-03-04T01:48:35;16.80;45.50
67820;DHT22;54618;52.018;5.576;2023-03-04T01:51:03;16.80;45.50
67820;DHT22;54618;52.018;5.576;2023-03-04T01:53:30;16.80;45.50
67820;DHT22;54618;52.018;5.576;2023-03-04T01:55:59;16.80;45.50
67820;DHT22;54618;52.018;5.576;2023-03-04T01:58:29;16.70;45.40
67820;DHT22;54618;52.018;5.576;2023-03-04T02:00:55;16.70;45.40
67820;DHT22;54618;52.018;5.576;2023-03-04T02:03:21;16.80;45.50
67820;DHT22;54618;52.018;5.576;2023-03-04T02:05:51;16.80;45.50
67820;DHT22;54618;52.018;5.576;2023-03-04T02:08:19;16.80;45.50
67820;DHT22;54618;52.018;5.576;2023-03-04T02:10:46;16.80;45.50
67820;DHT22;54618;52.018;5.576;2023-03-04T02:13:13;16.80;45.50
67820;DHT22;54618;52.018;5.576;2023-03-04T02:15:39;16.80;45.60
67820;DHT22;54618;52.018;5.576;2023-03-04T02:18:20;16.80;45.50
67820;DHT22;54618;52.018;5.576;2023-03-04T02:24:17;16.80;45.90
67820;DHT22;54618;52.018;5.576;2023-03-04T02:26:44;16.80;46.10
67820;DHT22;54618;52.018;5.576;2023-03-04T02:29:12;16.80;46.00
67820;DHT22;54618;52.018;5.576;2023-03-04T02:31:59;16.80;46.00
67820;DHT22;54618;52.018;5.576;2023-03-04T02:34:28;16.80;46.60
67820;DHT22;54618;52.018;5.576;2023-03-04T02:36:55;16.80;46.10
67820;DHT22;54618;52.018;5.576;2023-03-04T02:39:29;16.70;47.10
67820;DHT22;54618;52.018;5.576;2023-03-04T02:41:56;16.70;46.10
67820;DHT22;54618;52.018;5.576;2023-03-04T02:44:33;16.70;46.10
67820;DHT22;54618;52.018;5.576;2023-03-04T02:47:01;16.70;46.20
67820;DHT22;54618;52.018;5.576;2023-03-04T02:49:29;16.70;46.20
67820;DHT22;54618;52.018;5.576;2023-03-04T02:52:04;16.70;46.20
67820;DHT22;54618;52.018;5.576;2023-03-04T02:54:30;16.60;46.30
67820;DHT22;54618;52.018;5.576;2023-03-04T02:57:03;16.60;46.20
67820;DHT22;54618;52.018;5.576;2023-03-04T02:59:28;16.60;46.30
67820;DHT22;54618;52.018;5.576;2023-03-04T03:01:54;16.60;46.30
67820;DHT22;54618;52.018;5.576;2023-03-04T03:04:21;16.60;46.90
67820;DHT22;54618;52.018;5.576;2023-03-04T03:06:47;16.60;46.20
67820;DHT22;54618;52.018;5.576;2023-03-04T03:09:12;16.70;46.00
67820;DHT22;54618;52.018;5.576;2023-03-04T03:11:38;17.00;45.60
67820;DHT22;54618;52.018;5.576;2023-03-04T03:14:04;17.30;45.30
67820;DHT22;54618;52.018;5.576;2023-03-04T03:16:30;17.60;45.00
67820;DHT22;54618;52.018;5.576;2023-03-04T03:18:56;17.80;44.70
67820;DHT22;54618;52.018;5.576;2023-03-04T03:21:22;18.00;44.50
67820;DHT22;54618;52.018;5.576;2023-03-04T03:23:48;18.10;44.40
67820;DHT22;54618;52.018;5.576;2023-03-04T03:26:14;18.10;44.40
67820;DHT22;54618;52.018;5.576;2023-03-04T03:28:40;18.10;44.30
67820;DHT22;54618;52.018;5.576;2023-03-04T03:31:05;18.20;44.40
67820;DHT22;54618;52.018;5.576;2023-03-04T03:33:31;18.20;44.40
67820;DHT22;54618;52.018;5.576;2023-03-04T03:35:57;18.30;44.40
67820;DHT22;54618;52.018;5.576;2023-03-04T03:38:23;18.30;44.40
67820;DHT22;54618;52.018;5.576;2023-03-04T03:40:48;18.30;44.40
67820;DHT22;54618;52.018;5.576;2023-03-04T03:43:14;18.40;44.40
67820;DHT22;54618;52.018;5.576;2023-03-04T03:45:39;18.40;44.40
67820;DHT22;54618;52.018;5.576;2023-03-04T03:48:05;18.40;44.30
67820;DHT22;54618;52.018;5.576;2023-03-04T03:50:30;18.50;44.30
67820;DHT22;54618;52.018;5.576;2023-03-04T03:52:56;18.50;44.20
67820;DHT22;54618;52.018;5.576;2023-03-04T03:55:22;18.50;44.20
67820;DHT22;54618;52.018;5.576;2023-03-04T03:57:47;18.50;44.20
67820;DHT22;54618;52.018;5.576;2023-03-04T04:00:14;18.50;44.20
67820;DHT22;54618;52.018;5.576;2023-03-04T04:02:40;18.50;44.20
67820;DHT22;54618;52.018;5.576;2023-03-04T04:05:06;18.50;44.20
67820;DHT22;54618;52.018;5.576;2023-03-04T04:07:32;18.50;44.20
67820;DHT22;54618;52.018;5.576;2023-03-04T04:09:58;18.50;44.30
67820;DHT22;54618;52.018;5.576;2023-03-04T04:12:23;18.50;44.30
67820;DHT22;54618;52.018;5.576;2023-03-04T04:14:49;18.50;44.30
67820;DHT22;54618;52.018;5.576;2023-03-04T04:17:14;18.50;44.30
67820;DHT22;54618;52.018;5.576;2023-03-04T04:19:40;18.50;44.30
67820;DHT22;54618;52.018;5.576;2023-03-04T04:22:07;18.50;44.90
67820;DHT22;54618;52.018;5.576;2023-03-04T04:24:33;18.50;44.30
67820;DHT22;54618;52.018;5.576;2023-03-04T04:26:59;18.50;44.30
67820;DHT22;54618;52.018;5.576;2023-03-04T04:29:25;18.50;44.30
67820;DHT22;54618;52.018;5.576;2023-03-04T04:31:51;18.50;44.30
67820;DHT22;54618;52.018;5.576;2023-03-04T04:34:17;18.50;44.30
67820;DHT22;54618;52.018;5.576;2023-03-04T04:36:42;18.50;44.30
67820;DHT22;54618;52.018;5.576;2023-03-04T04:39:08;18.50;44.30
67820;DHT22;54618;52.018;5.576;2023-03-04T04:41:39;18.50;44.20
67820;DHT22;54618;52.018;5.576;2023-03-04T04:44:05;18.50;44.20
67820;DHT22;54618;52.018;5.576;2023-03-04T04:46:30;18.50;44.30
67820;DHT22;54618;52.018;5.576;2023-03-04T04:48:56;18.60;44.30
67820;DHT22;54618;52.018;5.576;2023-03-04T04:51:21;18.60;44.30
67820;DHT22;54618;52.018;5.576;2023-03-04T04:53:47;18.60;44.30
67820;DHT22;54618;52.018;5.576;2023-03-04T04:56:16;18.60;44.20
67820;DHT22;54618;52.018;5.576;2023-03-04T04:58:43;18.60;44.20
67820;DHT22;54618;52.018;5.576;2023-03-04T05:01:09;18.60;44.20
67820;DHT22;54618;52.018;5.576;2023-03-04T05:03:36;18.60;44.20
67820;DHT22;54618;52.018;5.576;2023-03-04T05:06:03;18.60;44.20
67820;DHT22;54618;52.018;5.576;2023-03-04T05:08:29;18.60;44.20
67820;DHT22;54618;52.018;5.576;2023-03-04T05:10:55;18.60;44.20
67820;DHT22;54618;52.018;5.576;2023-03-04T05:13:21;18.60;44.20
67820;DHT22;54618;52.018;5.576;2023-03-04T05:15:47;18.60;44.20
67820;DHT22;54618;52.018;5.576;2023-03-04T05:18:13;18.60;44.20
67820;DHT22;54618;52.018;5.576;2023-03-04T05:20:38;18.60;44.20
67820;DHT22;54618;52.018;5.576;2023-03-04T05:23:04;18.60;44.20
67820;DHT22;54618;52.018;5.576;2023-03-04T05:25:29;18.60;44.20
67820;DHT22;54618;52.018;5.576;2023-03-04T05:27:55;18.60;44.20
67820;DHT22;54618;52.018;5.576;2023-03-04T05:30:20;18.60;44.20
67820;DHT22;54618;52.018;5.576;2023-03-04T05:32:47;18.60;44.20
67820;DHT22;54618;52.018;5.576;2023-03-04T05:35:12;18.60;44.20
67820;DHT22;54618;52.018;5.576;2023-03-04T05:37:38;18.60;44.20
67820;DHT22;54618;52.018;5.576;2023-03-04T05:40:04;18.60;44.20
67820;DHT22;54618;52.018;5.576;2023-03-04T05:42:30;18.60;44.20
67820;DHT22;54618;52.018;5.576;2023-03-04T05:44:55;18.60;44.20
67820;DHT22;54618;52.018;5.576;2023-03-04T05:47:21;18.60;44.20
67820;DHT22;54618;52.018;5.576;2023-03-04T05:49:47;18.60;44.10
67820;DHT22;54618;52.018;5.576;2023-03-04T05:52:13;18.60;44.10
67820;DHT22;54618;52.018;5.576;2023-03-04T05:54:38;18.60;44.10
67820;DHT22;54618;52.018;5.576;2023-03-04T05:57:04;18.60;44.10
67820;DHT22;54618;52.018;5.576;2023-03-04T05:59:30;18.60;44.10
67820;DHT22;54618;52.018;5.576;2023-03-04T06:01:55;18.60;44.10
67820;DHT22;54618;52.018;5.576;2023-03-04T06:04:21;18.60;44.10
67820;DHT22;54618;52.018;5.576;2023-03-04T06:06:46;18.60;44.10
67820;DHT22;54618;52.018;5.576;2023-03-04T06:09:13;18.70;44.10
67820;DHT22;54618;52.018;5.576;2023-03-04T06:11:39;18.60;44.00
67820;DHT22;54618;52.018;5.576;2023-03-04T06:14:04;18.60;44.10
67820;DHT22;54618;52.018;5.576;2023-03-04T06:16:31;18.60;44.10
67820;DHT22;54618;52.018;5.576;2023-03-04T06:18:56;18.60;44.10
67820;DHT22;54618;52.018;5.576;2023-03-04T06:21:22;18.50;44.00
67820;DHT22;54618;52.018;5.576;2023-03-04T06:23:48;18.40;44.10
67820;DHT22;54618;52.018;5.576;2023-03-04T06:26:13;18.20;44.30
67820;DHT22;54618;52.018;5.576;2023-03-04T06:28:41;18.10;44.50
67820;DHT22;54618;52.018;5.576;2023-03-04T06:31:07;17.90;44.60
67820;DHT22;54618;52.018;5.576;2023-03-04T06:33:33;17.80;44.70
67820;DHT22;54618;52.018;5.576;2023-03-04T06:35:58;17.80;45.00
67820;DHT22;54618;52.018;5.576;2023-03-04T06:38:25;17.90;44.90
67820;DHT22;54618;52.018;5.576;2023-03-04T06:40:51;18.30;44.60
67820;DHT22;54618;52.018;5.576;2023-03-04T06:43:17;18.70;44.10
67820;DHT22;54618;52.018;5.576;2023-03-04T06:45:43;19.10;43.70
67820;DHT22;54618;52.018;5.576;2023-03-04T06:48:08;19.40;43.30
67820;DHT22;54618;52.018;5.576;2023-03-04T06:50:34;19.70;43.00
67820;DHT22;54618;52.018;5.576;2023-03-04T06:52:59;19.90;42.80
67820;DHT22;54618;52.018;5.576;2023-03-04T06:55:25;20.10;42.70
67820;DHT22;54618;52.018;5.576;2023-03-04T06:57:50;20.30;42.60
67820;DHT22;54618;52.018;5.576;2023-03-04T07:00:16;20.40;42.50
67820;DHT22;54618;52.018;5.576;2023-03-04T07:02:43;20.60;42.50
67820;DHT22;54618;52.018;5.576;2023-03-04T07:05:09;20.70;42.40
67820;DHT22;54618;52.018;5.576;2023-03-04T07:07:35;20.80;42.40
67820;DHT22;54618;52.018;5.576;2023-03-04T07:10:01;20.90;42.40
67820;DHT22;54618;52.018;5.576;2023-03-04T07:12:26;20.90;42.30
67820;DHT22;54618;52.018;5.576;2023-03-04T07:14:52;21.00;42.30
67820;DHT22;54618;52.018;5.576;2023-03-04T07:17:17;21.10;42.30
67820;DHT22;54618;52.018;5.576;2023-03-04T07:19:43;21.10;42.30
67820;DHT22;54618;52.018;5.576;2023-03-04T07:22:09;21.20;43.00
67820;DHT22;54618;52.018;5.576;2023-03-04T07:24:34;21.20;43.00
67820;DHT22;54618;52.018;5.576;2023-03-04T07:27:00;21.30;42.40
67820;DHT22;54618;52.018;5.576;2023-03-04T07:29:25;21.40;42.50
67820;DHT22;54618;52.018;5.576;2023-03-04T07:31:51;21.50;42.40
67820;DHT22;54618;52.018;5.576;2023-03-04T07:34:17;21.40;42.50
67820;DHT22;54618;52.018;5.576;2023-03-04T07:36:43;21.40;42.70
67820;DHT22;54618;52.018;5.576;2023-03-04T07:39:10;21.30;42.80
67820;DHT22;54618;52.018;5.576;2023-03-04T07:41:37;21.30;43.00
67820;DHT22;54618;52.018;5.576;2023-03-04T07:44:05;21.30;43.00
67820;DHT22;54618;52.018;5.576;2023-03-04T07:46:31;21.30;43.10
67820;DHT22;54618;52.018;5.576;2023-03-04T07:48:56;21.20;43.10
67820;DHT22;54618;52.018;5.576;2023-03-04T07:51:24;21.20;43.10
67820;DHT22;54618;52.018;5.576;2023-03-04T07:53:52;21.20;43.10
67820;DHT22;54618;52.018;5.576;2023-03-04T07:56:21;21.20;43.80
67820;DHT22;54618;52.018;5.576;2023-03-04T07:58:47;21.30;43.20
67820;DHT22;54618;52.018;5.576;2023-03-04T08:01:16;21.30;43.20
67820;DHT22;54618;52.018;5.576;2023-03-04T08:03:42;21.30;43.20
67820;DHT22;54618;52.018;5.576;2023-03-04T08:06:11;21.30;43.20
67820;DHT22;54618;52.018;5.576;2023-03-04T08:08:38;21.40;43.20
67820;DHT22;54618;52.018;5.576;2023-03-04T08:11:09;21.40;43.20
67820;DHT22;54618;52.018;5.576;2023-03-04T08:13:35;21.20;43.10
67820;DHT22;54618;52.018;5.576;2023-03-04T08:16:01;21.00;42.80
67820;DHT22;54618;52.018;5.576;2023-03-04T08:18:26;20.70;43.30
67820;DHT22;54618;52.018;5.576;2023-03-04T08:20:52;20.50;43.10
67820;DHT22;54618;52.018;5.576;2023-03-04T08:23:18;20.20;43.30
67820;DHT22;54618;52.018;5.576;2023-03-04T08:25:44;19.80;43.70
67820;DHT22;54618;52.018;5.576;2023-03-04T08:28:11;19.70;44.10
67820;DHT22;54618;52.018;5.576;2023-03-04T08:30:40;19.50;44.30
67820;DHT22;54618;52.018;5.576;2023-03-04T08:33:06;19.40;44.40
67820;DHT22;54618;52.018;5.576;2023-03-04T08:35:34;19.30;44.50
67820;DHT22;54618;52.018;5.576;2023-03-04T08:38:00;19.20;44.50
67820;DHT22;54618;52.018;5.576;2023-03-04T08:40:26;19.20;44.60
67820;DHT22;54618;52.018;5.576;2023-03-04T08:42:52;19.10;44.60
67820;DHT22;54618;52.018;5.576;2023-03-04T08:45:17;19.00;44.70
67820;DHT22;54618;52.018;5.576;2023-03-04T08:47:43;18.90;44.80
67820;DHT22;54618;52.018;5.576;2023-03-04T08:50:10;18.80;44.80
67820;DHT22;54618;52.018;5.576;2023-03-04T08:52:35;18.80;44.90
67820;DHT22;54618;52.018;5.576;2023-03-04T08:55:01;18.70;44.90
67820;DHT22;54618;52.018;5.576;2023-03-04T08:57:26;18.70;45.00
67820;DHT22;54618;52.018;5.576;2023-03-04T08:59:52;18.60;45.00
67820;DHT22;54618;52.018;5.576;2023-03-04T09:02:17;18.60;45.10
67820;DHT22;54618;52.018;5.576;2023-03-04T09:04:43;18.50;45.00
67820;DHT22;54618;52.018;5.576;2023-03-04T09:07:09;18.50;45.10
67820;DHT22;54618;52.018;5.576;2023-03-04T09:09:35;18.40;45.70
67820;DHT22;54618;52.018;5.576;2023-03-04T09:12:01;18.40;45.20
67820;DHT22;54618;52.018;5.576;2023-03-04T09:14:27;18.40;45.20
67820;DHT22;54618;52.018;5.576;2023-03-04T09:16:52;18.30;45.20
67820;DHT22;54618;52.018;5.576;2023-03-04T09:19:18;18.30;45.30
67820;DHT22;54618;52.018;5.576;2023-03-04T09:21:44;18.20;45.20
67820;DHT22;54618;52.018;5.576;2023-03-04T09:24:09;18.20;45.30
67820;DHT22;54618;52.018;5.576;2023-03-04T09:26:35;18.20;45.30
67820;DHT22;54618;52.018;5.576;2023-03-04T09:29:01;18.10;45.30
67820;DHT22;54618;52.018;5.576;2023-03-04T09:31:28;18.10;45.40
67820;DHT22;54618;52.018;5.576;2023-03-04T09:33:55;18.10;45.40
67820;DHT22;54618;52.018;5.576;2023-03-04T09:36:21;18.10;45.40
67820;DHT22;54618;52.018;5.576;2023-03-04T09:38:47;18.00;45.40
67820;DHT22;54618;52.018;5.576;2023-03-04T09:41:20;18.00;45.40
67820;DHT22;54618;52.018;5.576;2023-03-04T09:43:48;17.90;45.50
67820;DHT22;54618;52.018;5.576;2023-03-04T09:46:32;17.90;45.50
67820;DHT22;54618;52.018;5.576;2023-03-04T09:48:58;17.90;45.40
67820;DHT22;54618;52.018;5.576;2023-03-04T09:54:36;17.90;45.50
67820;DHT22;54618;52.018;5.576;2023-03-04T10:00:18;17.90;46.00
67820;DHT22;54618;52.018;5.576;2023-03-04T10:05:31;17.90;45.90
67820;DHT22;54618;52.018;5.576;2023-03-04T10:08:04;17.80;45.60
67820;DHT22;54618;52.018;5.576;2023-03-04T10:10:37;17.80;45.60
67820;DHT22;54618;52.018;5.576;2023-03-04T10:13:04;17.80;46.20
67820;DHT22;54618;52.018;5.576;2023-03-04T10:15:38;17.80;45.60
67820;DHT22;54618;52.018;5.576;2023-03-04T10:18:18;17.80;45.60
67820;DHT22;54618;52.018;5.576;2023-03-04T10:23:18;17.70;45.70
67820;DHT22;54618;52.018;5.576;2023-03-04T10:25:44;17.70;45.70
67820;DHT22;54618;52.018;5.576;2023-03-04T10:28:17;17.70;45.70
67820;DHT22;54618;52.018;5.576;2023-03-04T10:30:57;17.70;45.80
67820;DHT22;54618;52.018;5.576;2023-03-04T10:33:27;17.70;45.80
67820;DHT22;54618;52.018;5.576;2023-03-04T10:36:05;17.70;45.70
67820;DHT22;54618;52.018;5.576;2023-03-04T10:38:41;17.70;45.90
67820;DHT22;54618;52.018;5.576;2023-03-04T10:41:15;17.70;45.70
67820;DHT22;54618;52.018;5.576;2023-03-04T10:43:42;17.60;45.90
67820;DHT22;54618;52.018;5.576;2023-03-04T10:46:11;17.60;45.80
67820;DHT22;54618;52.018;5.576;2023-03-04T10:48:40;17.60;45.80
67820;DHT22;54618;52.018;5.576;2023-03-04T10:51:38;17.60;45.90
67820;DHT22;54618;52.018;5.576;2023-03-04T10:54:19;17.60;46.30
67820;DHT22;54618;52.018;5.576;2023-03-04T10:57:02;17.50;45.90
67820;DHT22;54618;52.018;5.576;2023-03-04T11:02:10;17.60;45.90
67820;DHT22;54618;52.018;5.576;2023-03-04T11:04:38;17.60;45.90
67820;DHT22;54618;52.018;5.576;2023-03-04T11:07:10;17.60;45.70
67820;DHT22;54618;52.018;5.576;2023-03-04T11:09:36;17.70;45.80
67820;DHT22;54618;52.018;5.576;2023-03-04T11:12:05;17.70;45.70
67820;DHT22;54618;52.018;5.576;2023-03-04T11:14:49;17.70;45.60
67820;DHT22;54618;52.018;5.576;2023-03-04T11:19:50;17.70;45.80
67820;DHT22;54618;52.018;5.576;2023-03-04T11:22:19;17.70;45.70
67820;DHT22;54618;52.018;5.576;2023-03-04T11:25:02;17.80;45.70
67820;DHT22;54618;52.018;5.576;2023-03-04T11:27:41;17.80;45.70
67820;DHT22;54618;52.018;5.576;2023-03-04T11:32:47;17.80;45.80
67820;DHT22;54618;52.018;5.576;2023-03-04T11:35:19;17.80;45.60
67820;DHT22;54618;52.018;5.576;2023-03-04T11:38:14;17.80;45.70
67820;DHT22;54618;52.018;5.576;2023-03-04T11:43:26;17.70;45.70
67820;DHT22;54618;52.018;5.576;2023-03-04T11:49:06;17.70;46.10
67820;DHT22;54618;52.018;5.576;2023-03-04T11:54:43;17.60;46.30
67820;DHT22;54618;52.018;5.576;2023-03-04T11:57:29;17.60;46.10
67820;DHT22;54618;52.018;5.576;2023-03-04T12:02:50;17.80;45.70
67820;DHT22;54618;52.018;5.576;2023-03-04T12:05:30;18.30;45.20
67820;DHT22;54618;52.018;5.576;2023-03-04T12:08:32;18.90;44.50
67820;DHT22;54618;52.018;5.576;2023-03-04T12:11:14;19.40;44.20
67820;DHT22;54618;52.018;5.576;2023-03-04T12:13:57;19.80;43.40
67820;DHT22;54618;52.018;5.576;2023-03-04T12:16:40;20.10;43.20
67820;DHT22;54618;52.018;5.576;2023-03-04T12:44:15;21.50;42.50
67820;DHT22;54618;52.018;5.576;2023-03-04T12:49:36;21.60;42.50
67820;DHT22;54618;52.018;5.576;2023-03-04T12:52:20;21.60;42.70
67820;DHT22;54618;52.018;5.576;2023-03-04T12:54:51;21.70;42.80
67820;DHT22;54618;52.018;5.576;2023-03-04T12:57:23;21.70;42.80
67820;DHT22;54618;52.018;5.576;2023-03-04T13:05:06;21.80;42.80
67820;DHT22;54618;52.018;5.576;2023-03-04T13:10:18;21.80;42.80
67820;DHT22;54618;52.018;5.576;2023-03-04T13:12:53;21.80;42.80
67820;DHT22;54618;52.018;5.576;2023-03-04T13:15:34;21.80;42.80
67820;DHT22;54618;52.018;5.576;2023-03-04T13:18:03;21.80;42.70
67820;DHT22;54618;52.018;5.576;2023-03-04T13:23:22;21.80;42.90
67820;DHT22;54618;52.018;5.576;2023-03-04T13:28:28;21.70;42.80
67820;DHT22;54618;52.018;5.576;2023-03-04T13:51:40;21.70;42.80
67820;DHT22;54618;52.018;5.576;2023-03-04T13:54:30;21.70;42.60
67820;DHT22;54618;52.018;5.576;2023-03-04T14:02:12;21.70;42.60
67820;DHT22;54618;52.018;5.576;2023-03-04T14:04:45;21.70;42.80
67820;DHT22;54618;52.018;5.576;2023-03-04T14:07:29;21.70;42.70
67820;DHT22;54618;52.018;5.576;2023-03-04T14:10:17;21.70;42.60
67820;DHT22;54618;52.018;5.576;2023-03-04T14:12:53;21.70;42.70
67820;DHT22;54618;52.018;5.576;2023-03-04T14:15:21;21.70;42.50
67820;DHT22;54618;52.018;5.576;2023-03-04T14:17:50;21.70;42.70
67820;DHT22;54618;52.018;5.576;2023-03-04T14:22:48;21.80;42.60
67820;DHT22;54618;52.018;5.576;2023-03-04T14:27:46;21.80;42.60
67820;DHT22;54618;52.018;5.576;2023-03-04T14:30:24;21.80;42.60
67820;DHT22;54618;52.018;5.576;2023-03-04T14:32:56;21.90;42.50
67820;DHT22;54618;52.018;5.576;2023-03-04T14:35:25;21.90;42.50
67820;DHT22;54618;52.018;5.576;2023-03-04T14:37:58;21.90;42.50
67820;DHT22;54618;52.018;5.576;2023-03-04T14:40:28;21.90;42.50
67820;DHT22;54618;52.018;5.576;2023-03-04T14:42:58;21.80;42.50
67820;DHT22;54618;52.018;5.576;2023-03-04T14:45:26;21.80;42.50
67820;DHT22;54618;52.018;5.576;2023-03-04T14:47:55;21.80;42.60
67820;DHT22;54618;52.018;5.576;2023-03-04T14:50:22;21.80;42.50
67820;DHT22;54618;52.018;5.576;2023-03-04T14:52:50;21.90;42.50
67820;DHT22;54618;52.018;5.576;2023-03-04T14:55:27;21.80;42.50
67820;DHT22;54618;52.018;5.576;2023-03-04T15:00:37;21.90;42.50
67820;DHT22;54618;52.018;5.576;2023-03-04T15:03:27;21.80;42.40
67820;DHT22;54618;52.018;5.576;2023-03-04T15:05:53;21.80;42.40
67820;DHT22;54618;52.018;5.576;2023-03-04T15:11:02;21.90;42.50
67820;DHT22;54618;52.018;5.576;2023-03-04T15:13:40;21.90;42.50
67820;DHT22;54618;52.018;5.576;2023-03-04T15:16:07;21.90;42.50
67820;DHT22;54618;52.018;5.576;2023-03-04T15:18:33;21.90;42.50
67820;DHT22;54618;52.018;5.576;2023-03-04T15:21:23;21.90;42.50
67820;DHT22;54618;52.018;5.576;2023-03-04T15:23:50;21.90;42.50
67820;DHT22;54618;52.018;5.576;2023-03-04T15:26:16;21.90;42.50
67820;DHT22;54618;52.018;5.576;2023-03-04T15:28:41;21.90;42.40
67820;DHT22;54618;52.018;5.576;2023-03-04T15:31:15;21.90;42.40
67820;DHT22;54618;52.018;5.576;2023-03-04T15:33:41;21.90;42.40
67820;DHT22;54618;52.018;5.576;2023-03-04T15:36:14;21.90;42.40
67820;DHT22;54618;52.018;5.576;2023-03-04T15:38:42;21.90;42.40
67820;DHT22;54618;52.018;5.576;2023-03-04T15:41:10;21.90;42.40
67820;DHT22;54618;52.018;5.576;2023-03-04T15:43:36;21.90;42.40
67820;DHT22;54618;52.018;5.576;2023-03-04T15:46:02;21.90;42.50
67820;DHT22;54618;52.018;5.576;2023-03-04T15:48:27;21.90;42.50
67820;DHT22;54618;52.018;5.576;2023-03-04T15:50:58;21.90;42.40
67820;DHT22;54618;52.018;5.576;2023-03-04T15:53:31;21.90;42.40
67820;DHT22;54618;52.018;5.576;2023-03-04T15:55:58;21.90;42.40
67820;DHT22;54618;52.018;5.576;2023-03-04T15:58:24;22.00;42.40
67820;DHT22;54618;52.018;5.576;2023-03-04T16:00:50;22.00;42.40
67820;DHT22;54618;52.018;5.576;2023-03-04T16:03:17;22.00;42.30
67820;DHT22;54618;52.018;5.576;2023-03-04T16:05:45;22.00;42.30
67820;DHT22;54618;52.018;5.576;2023-03-04T16:08:14;22.00;42.30
67820;DHT22;54618;52.018;5.576;2023-03-04T16:10:41;22.00;42.20
67820;DHT22;54618;52.018;5.576;2023-03-04T16:13:12;22.00;42.30
67820;DHT22;54618;52.018;5.576;2023-03-04T16:15:39;22.00;42.30
67820;DHT22;54618;52.018;5.576;2023-03-04T16:18:05;22.00;42.30
67820;DHT22;54618;52.018;5.576;2023-03-04T16:20:32;22.00;42.30
67820;DHT22;54618;52.018;5.576;2023-03-04T16:22:59;22.10;42.40
67820;DHT22;54618;52.018;5.576;2023-03-04T16:25:25;22.10;42.40
67820;DHT22;54618;52.018;5.576;2023-03-04T16:27:53;22.00;42.50
67820;DHT22;54618;52.018;5.576;2023-03-04T16:30:22;22.00;42.60
67820;DHT22;54618;52.018;5.576;2023-03-04T16:32:48;22.10;42.80
67820;DHT22;54618;52.018;5.576;2023-03-04T16:35:17;22.00;42.90
67820;DHT22;54618;52.018;5.576;2023-03-04T16:37:43;22.00;43.10
67820;DHT22;54618;52.018;5.576;2023-03-04T16:40:12;21.90;43.30
67820;DHT22;54618;52.018;5.576;2023-03-04T16:42:38;21.80;43.50
67820;DHT22;54618;52.018;5.576;2023-03-04T16:45:05;21.80;43.60
67820;DHT22;54618;52.018;5.576;2023-03-04T16:47:31;21.80;43.70
67820;DHT22;54618;52.018;5.576;2023-03-04T16:49:59;21.80;43.80
67820;DHT22;54618;52.018;5.576;2023-03-04T16:52:28;21.60;43.80
67820;DHT22;54618;52.018;5.576;2023-03-04T16:54:55;21.60;44.00
67820;DHT22;54618;52.018;5.576;2023-03-04T16:57:21;21.60;44.70
67820;DHT22;54618;52.018;5.576;2023-03-04T16:59:47;21.60;44.10
67820;DHT22;54618;52.018;5.576;2023-03-04T17:02:19;21.60;44.80
67820;DHT22;54618;52.018;5.576;2023-03-04T17:04:46;21.60;44.20
67820;DHT22;54618;52.018;5.576;2023-03-04T17:07:12;21.40;44.10
67820;DHT22;54618;52.018;5.576;2023-03-04T17:09:38;21.20;44.30
67820;DHT22;54618;52.018;5.576;2023-03-04T17:12:07;21.10;44.50
67820;DHT22;54618;52.018;5.576;2023-03-04T17:14:33;20.90;44.60
67820;DHT22;54618;52.018;5.576;2023-03-04T17:17:00;20.80;44.70
67820;DHT22;54618;52.018;5.576;2023-03-04T17:19:26;20.60;44.90
67820;DHT22;54618;52.018;5.576;2023-03-04T17:21:52;20.50;45.00
67820;DHT22;54618;52.018;5.576;2023-03-04T17:24:17;20.40;45.10
67820;DHT22;54618;52.018;5.576;2023-03-04T17:26:43;20.30;45.10
67820;DHT22;54618;52.018;5.576;2023-03-04T17:29:09;20.20;45.10